sensor_id;sensor_type;location;lat;lon;timestamp;P1;durP1;ratioP1;P2;durP2;ratioP2
68449;SDS011;55434;39.570;2.652;2022-08-03T00:00:05;7.37;;;3.30;;
68449;SDS011;55434;39.570;2.652;2022-08-03T00:02:34;8.77;;;3.20;;
68449;SDS011;55434;39.570;2.652;2022-08-03T00:05:00;7.25;;;3.10;;
68449;SDS011;55434;39.570;2.652;2022-08-03T00:07:26;7.18;;;3.50;;
68449;SDS011;55434;39.570;2.652;2022-08-03T00:10:00;6.33;;;2.80;;
68449;SDS011;55434;39.570;2.652;2022-08-03T00:12:34;8.73;;;3.60;;
68449;SDS011;55434;39.570;2.652;2022-08-03T00:15:10;8.30;;;3.35;;
68449;SDS011;55434;39.570;2.652;2022-08-03T00:17:43;6.05;;;3.28;;
68449;SDS011;55434;39.570;2.652;2022-08-03T00:20:28;8.52;;;3.28;;
68449;SDS011;55434;39.570;2.652;2022-08-03T00:22:56;7.10;;;3.13;;
68449;SDS011;55434;39.570;2.652;2022-08-03T00:25:23;10.52;;;3.50;;
68449;SDS011;55434;39.570;2.652;2022-08-03T00:27:57;7.88;;;3.55;;
68449;SDS011;55434;39.570;2.652;2022-08-03T00:30:22;9.10;;;3.73;;
68449;SDS011;55434;39.570;2.652;2022-08-03T00:32:48;6.00;;;3.00;;
68449;SDS011;55434;39.570;2.652;2022-08-03T00:35:14;8.37;;;3.10;;
68449;SDS011;55434;39.570;2.652;2022-08-03T00:37:42;8.70;;;3.70;;
68449;SDS011;55434;39.570;2.652;2022-08-03T00:40:13;6.88;;;3.15;;
68449;SDS011;55434;39.570;2.652;2022-08-03T00:42:51;9.30;;;3.30;;
68449;SDS011;55434;39.570;2.652;2022-08-03T00:45:22;8.60;;;3.47;;
68449;SDS011;55434;39.570;2.652;2022-08-03T00:47:49;8.32;;;3.40;;
68449;SDS011;55434;39.570;2.652;2022-08-03T00:50:16;11.70;;;3.55;;
68449;SDS011;55434;39.570;2.652;2022-08-03T00:52:46;8.05;;;3.13;;
68449;SDS011;55434;39.570;2.652;2022-08-03T00:55:13;7.70;;;2.97;;
68449;SDS011;55434;39.570;2.652;2022-08-03T00:57:41;7.28;;;3.25;;
68449;SDS011;55434;39.570;2.652;2022-08-03T01:00:07;6.95;;;3.10;;
68449;SDS011;55434;39.570;2.652;2022-08-03T01:02:35;8.15;;;3.13;;
68449;SDS011;55434;39.570;2.652;2022-08-03T01:05:02;8.35;;;2.83;;
68449;SDS011;55434;39.570;2.652;2022-08-03T01:10:38;6.95;;;3.67;;
68449;SDS011;55434;39.570;2.652;2022-08-03T01:13:59;6.95;;;4.05;;
68449;SDS011;55434;39.570;2.652;2022-08-03T01:33:54;5.88;;;3.08;;
68449;SDS011;55434;39.570;2.652;2022-08-03T01:44:34;7.22;;;3.30;;
68449;SDS011;55434;39.570;2.652;2022-08-03T01:47:24;8.77;;;3.30;;
68449;SDS011;55434;39.570;2.652;2022-08-03T02:11:02;6.53;;;3.70;;
68449;SDS011;55434;39.570;2.652;2022-08-03T02:14:05;7.97;;;3.40;;
68449;SDS011;55434;39.570;2.652;2022-08-03T02:20:26;9.35;;;3.65;;
68449;SDS011;55434;39.570;2.652;2022-08-03T02:23:02;8.43;;;3.15;;
68449;SDS011;55434;39.570;2.652;2022-08-03T02:25:43;7.13;;;3.17;;
68449;SDS011;55434;39.570;2.652;2022-08-03T02:28:17;7.60;;;3.15;;
68449;SDS011;55434;39.570;2.652;2022-08-03T02:30:53;8.85;;;4.07;;
68449;SDS011;55434;39.570;2.652;2022-08-03T02:33:36;10.85;;;3.53;;
68449;SDS011;55434;39.570;2.652;2022-08-03T02:36:28;10.32;;;3.85;;
68449;SDS011;55434;39.570;2.652;2022-08-03T02:39:16;12.37;;;3.27;;
68449;SDS011;55434;39.570;2.652;2022-08-03T02:48:45;9.77;;;3.50;;
68449;SDS011;55434;39.570;2.652;2022-08-03T02:51:12;8.02;;;3.30;;
68449;SDS011;55434;39.570;2.652;2022-08-03T02:53:44;8.95;;;2.80;;
68449;SDS011;55434;39.570;2.652;2022-08-03T02:56:11;11.80;;;3.15;;
68449;SDS011;55434;39.570;2.652;2022-08-03T02:58:38;8.55;;;3.15;;
68449;SDS011;55434;39.570;2.652;2022-08-03T03:01:06;8.43;;;3.30;;
68449;SDS011;55434;39.570;2.652;2022-08-03T03:03:33;6.68;;;3.42;;
68449;SDS011;55434;39.570;2.652;2022-08-03T03:06:01;9.27;;;3.03;;
68449;SDS011;55434;39.570;2.652;2022-08-03T03:08:27;8.98;;;2.90;;
68449;SDS011;55434;39.570;2.652;2022-08-03T03:10:54;8.35;;;3.17;;
68449;SDS011;55434;39.570;2.652;2022-08-03T03:13:22;7.95;;;3.10;;
68449;SDS011;55434;39.570;2.652;2022-08-03T03:15:48;9.30;;;3.35;;
68449;SDS011;55434;39.570;2.652;2022-08-03T03:18:16;8.17;;;3.33;;
68449;SDS011;55434;39.570;2.652;2022-08-03T03:20:43;8.13;;;3.20;;
68449;SDS011;55434;39.570;2.652;2022-08-03T03:23:10;6.80;;;3.25;;
68449;SDS011;55434;39.570;2.652;2022-08-03T03:25:38;6.28;;;2.95;;
68449;SDS011;55434;39.570;2.652;2022-08-03T03:28:05;6.93;;;2.92;;
68449;SDS011;55434;39.570;2.652;2022-08-03T03:30:30;6.57;;;3.40;;
68449;SDS011;55434;39.570;2.652;2022-08-03T03:32:58;7.43;;;3.08;;
68449;SDS011;55434;39.570;2.652;2022-08-03T03:35:24;6.15;;;3.13;;
68449;SDS011;55434;39.570;2.652;2022-08-03T03:37:51;6.25;;;2.90;;
68449;SDS011;55434;39.570;2.652;2022-08-03T03:42:49;7.35;;;3.00;;
68449;SDS011;55434;39.570;2.652;2022-08-03T03:45:15;6.82;;;3.20;;
68449;SDS011;55434;39.570;2.652;2022-08-03T03:47:41;8.33;;;3.10;;
68449;SDS011;55434;39.570;2.652;2022-08-03T03:50:06;7.82;;;3.42;;
68449;SDS011;55434;39.570;2.652;2022-08-03T03:52:32;8.35;;;2.72;;
68449;SDS011;55434;39.570;2.652;2022-08-03T03:54:58;12.03;;;3.07;;
68449;SDS011;55434;39.570;2.652;2022-08-03T03:57:24;7.53;;;3.22;;
68449;SDS011;55434;39.570;2.652;2022-08-03T03:59:50;8.27;;;3.37;;
68449;SDS011;55434;39.570;2.652;2022-08-03T04:02:16;7.18;;;3.17;;
68449;SDS011;55434;39.570;2.652;2022-08-03T04:04:41;7.72;;;3.00;;
68449;SDS011;55434;39.570;2.652;2022-08-03T04:07:26;7.80;;;3.00;;
68449;SDS011;55434;39.570;2.652;2022-08-03T04:10:20;7.85;;;3.13;;
68449;SDS011;55434;39.570;2.652;2022-08-03T04:13:08;7.65;;;3.22;;
68449;SDS011;55434;39.570;2.652;2022-08-03T04:15:38;9.45;;;3.30;;
68449;SDS011;55434;39.570;2.652;2022-08-03T04:18:06;7.47;;;3.08;;
68449;SDS011;55434;39.570;2.652;2022-08-03T04:20:36;6.23;;;3.30;;
68449;SDS011;55434;39.570;2.652;2022-08-03T04:23:05;8.02;;;3.10;;
68449;SDS011;55434;39.570;2.652;2022-08-03T04:25:32;9.80;;;3.15;;
68449;SDS011;55434;39.570;2.652;2022-08-03T04:28:01;7.85;;;3.15;;
68449;SDS011;55434;39.570;2.652;2022-08-03T04:30:27;9.27;;;3.33;;
68449;SDS011;55434;39.570;2.652;2022-08-03T04:32:55;8.60;;;3.30;;
68449;SDS011;55434;39.570;2.652;2022-08-03T04:35:23;10.50;;;3.63;;
68449;SDS011;55434;39.570;2.652;2022-08-03T04:37:50;8.45;;;3.35;;
68449;SDS011;55434;39.570;2.652;2022-08-03T04:40:19;8.52;;;3.28;;
68449;SDS011;55434;39.570;2.652;2022-08-03T04:42:49;11.70;;;3.58;;
68449;SDS011;55434;39.570;2.652;2022-08-03T04:45:17;7.40;;;3.47;;
68449;SDS011;55434;39.570;2.652;2022-08-03T04:47:45;9.82;;;3.10;;
68449;SDS011;55434;39.570;2.652;2022-08-03T04:50:11;12.02;;;3.05;;
68449;SDS011;55434;39.570;2.652;2022-08-03T04:52:37;8.18;;;2.83;;
68449;SDS011;55434;39.570;2.652;2022-08-03T04:55:03;7.90;;;3.40;;
68449;SDS011;55434;39.570;2.652;2022-08-03T04:57:29;6.47;;;2.83;;
68449;SDS011;55434;39.570;2.652;2022-08-03T04:59:54;9.27;;;3.30;;
68449;SDS011;55434;39.570;2.652;2022-08-03T05:02:20;11.45;;;3.63;;
68449;SDS011;55434;39.570;2.652;2022-08-03T05:04:47;9.27;;;3.42;;
68449;SDS011;55434;39.570;2.652;2022-08-03T05:07:13;11.00;;;3.00;;
68449;SDS011;55434;39.570;2.652;2022-08-03T05:09:40;7.60;;;3.30;;
68449;SDS011;55434;39.570;2.652;2022-08-03T05:12:06;9.50;;;3.60;;
68449;SDS011;55434;39.570;2.652;2022-08-03T05:14:32;13.25;;;3.95;;
68449;SDS011;55434;39.570;2.652;2022-08-03T05:16:58;7.67;;;3.00;;
68449;SDS011;55434;39.570;2.652;2022-08-03T05:19:24;9.55;;;3.03;;
68449;SDS011;55434;39.570;2.652;2022-08-03T05:21:49;7.73;;;3.60;;
68449;SDS011;55434;39.570;2.652;2022-08-03T05:24:15;8.93;;;3.80;;
68449;SDS011;55434;39.570;2.652;2022-08-03T05:26:41;13.27;;;3.28;;
68449;SDS011;55434;39.570;2.652;2022-08-03T05:29:06;9.90;;;3.17;;
68449;SDS011;55434;39.570;2.652;2022-08-03T05:31:32;8.45;;;3.38;;
68449;SDS011;55434;39.570;2.652;2022-08-03T05:33:57;14.77;;;3.70;;
68449;SDS011;55434;39.570;2.652;2022-08-03T05:36:23;10.53;;;3.10;;
68449;SDS011;55434;39.570;2.652;2022-08-03T05:38:48;9.90;;;3.05;;
68449;SDS011;55434;39.570;2.652;2022-08-03T05:41:14;8.47;;;3.07;;
68449;SDS011;55434;39.570;2.652;2022-08-03T05:43:39;9.80;;;3.50;;
68449;SDS011;55434;39.570;2.652;2022-08-03T05:46:05;8.53;;;3.23;;
68449;SDS011;55434;39.570;2.652;2022-08-03T05:48:32;8.20;;;3.30;;
68449;SDS011;55434;39.570;2.652;2022-08-03T05:50:57;8.98;;;3.33;;
68449;SDS011;55434;39.570;2.652;2022-08-03T05:53:23;10.07;;;3.30;;
68449;SDS011;55434;39.570;2.652;2022-08-03T05:55:53;9.57;;;3.28;;
68449;SDS011;55434;39.570;2.652;2022-08-03T05:58:19;8.48;;;3.53;;
68449;SDS011;55434;39.570;2.652;2022-08-03T06:00:45;9.67;;;3.13;;
68449;SDS011;55434;39.570;2.652;2022-08-03T06:03:10;8.50;;;3.50;;
68449;SDS011;55434;39.570;2.652;2022-08-03T06:05:36;10.87;;;3.50;;
68449;SDS011;55434;39.570;2.652;2022-08-03T06:08:03;8.53;;;3.50;;
68449;SDS011;55434;39.570;2.652;2022-08-03T06:10:29;7.47;;;3.53;;
68449;SDS011;55434;39.570;2.652;2022-08-03T06:12:55;6.60;;;3.65;;
68449;SDS011;55434;39.570;2.652;2022-08-03T06:15:21;10.83;;;4.23;;
68449;SDS011;55434;39.570;2.652;2022-08-03T06:17:47;9.95;;;4.22;;
68449;SDS011;55434;39.570;2.652;2022-08-03T06:20:17;10.45;;;4.10;;
68449;SDS011;55434;39.570;2.652;2022-08-03T06:22:45;7.77;;;3.30;;
68449;SDS011;55434;39.570;2.652;2022-08-03T06:25:11;7.72;;;3.10;;
68449;SDS011;55434;39.570;2.652;2022-08-03T06:27:37;10.30;;;3.13;;
68449;SDS011;55434;39.570;2.652;2022-08-03T06:30:05;11.85;;;3.33;;
68449;SDS011;55434;39.570;2.652;2022-08-03T06:32:32;6.93;;;3.25;;
68449;SDS011;55434;39.570;2.652;2022-08-03T06:34:59;9.47;;;3.47;;
68449;SDS011;55434;39.570;2.652;2022-08-03T06:37:25;9.25;;;3.50;;
68449;SDS011;55434;39.570;2.652;2022-08-03T06:39:51;10.82;;;3.50;;
68449;SDS011;55434;39.570;2.652;2022-08-03T06:42:18;14.00;;;3.72;;
68449;SDS011;55434;39.570;2.652;2022-08-03T06:44:43;10.93;;;3.57;;
68449;SDS011;55434;39.570;2.652;2022-08-03T06:47:09;7.07;;;3.63;;
68449;SDS011;55434;39.570;2.652;2022-08-03T06:49:35;8.90;;;3.50;;
68449;SDS011;55434;39.570;2.652;2022-08-03T06:52:01;11.00;;;3.70;;
68449;SDS011;55434;39.570;2.652;2022-08-03T06:54:27;11.68;;;3.80;;
68449;SDS011;55434;39.570;2.652;2022-08-03T06:56:53;8.17;;;3.30;;
68449;SDS011;55434;39.570;2.652;2022-08-03T06:59:19;10.67;;;3.80;;
68449;SDS011;55434;39.570;2.652;2022-08-03T07:01:44;8.55;;;3.67;;
68449;SDS011;55434;39.570;2.652;2022-08-03T07:04:10;15.67;;;3.87;;
68449;SDS011;55434;39.570;2.652;2022-08-03T07:06:37;13.40;;;3.80;;
68449;SDS011;55434;39.570;2.652;2022-08-03T07:09:03;8.10;;;4.00;;
68449;SDS011;55434;39.570;2.652;2022-08-03T07:11:34;17.97;;;4.37;;
68449;SDS011;55434;39.570;2.652;2022-08-03T07:14:01;14.80;;;3.92;;
68449;SDS011;55434;39.570;2.652;2022-08-03T07:16:27;9.77;;;3.75;;
68449;SDS011;55434;39.570;2.652;2022-08-03T07:18:52;12.93;;;3.77;;
68449;SDS011;55434;39.570;2.652;2022-08-03T07:21:18;6.00;;;3.45;;
68449;SDS011;55434;39.570;2.652;2022-08-03T07:23:45;8.50;;;2.90;;
68449;SDS011;55434;39.570;2.652;2022-08-03T07:26:12;10.40;;;3.38;;
68449;SDS011;55434;39.570;2.652;2022-08-03T07:28:38;13.07;;;3.30;;
68449;SDS011;55434;39.570;2.652;2022-08-03T07:31:03;10.43;;;2.70;;
68449;SDS011;55434;39.570;2.652;2022-08-03T07:33:32;10.00;;;3.08;;
68449;SDS011;55434;39.570;2.652;2022-08-03T07:35:57;9.87;;;3.00;;
68449;SDS011;55434;39.570;2.652;2022-08-03T07:38:23;14.30;;;3.80;;
68449;SDS011;55434;39.570;2.652;2022-08-03T07:40:54;16.58;;;3.78;;
68449;SDS011;55434;39.570;2.652;2022-08-03T07:43:22;16.90;;;3.80;;
68449;SDS011;55434;39.570;2.652;2022-08-03T07:45:50;13.53;;;3.30;;
68449;SDS011;55434;39.570;2.652;2022-08-03T07:48:19;7.97;;;3.40;;
68449;SDS011;55434;39.570;2.652;2022-08-03T07:50:54;11.20;;;3.58;;
68449;SDS011;55434;39.570;2.652;2022-08-03T07:53:23;13.50;;;3.67;;
68449;SDS011;55434;39.570;2.652;2022-08-03T07:55:48;11.60;;;3.30;;
68449;SDS011;55434;39.570;2.652;2022-08-03T07:58:14;11.07;;;2.80;;
68449;SDS011;55434;39.570;2.652;2022-08-03T08:00:43;8.43;;;2.90;;
68449;SDS011;55434;39.570;2.652;2022-08-03T08:03:09;9.07;;;2.80;;
68449;SDS011;55434;39.570;2.652;2022-08-03T08:05:36;6.60;;;2.70;;
68449;SDS011;55434;39.570;2.652;2022-08-03T08:08:03;6.75;;;2.30;;
68449;SDS011;55434;39.570;2.652;2022-08-03T08:10:29;10.63;;;2.33;;
68449;SDS011;55434;39.570;2.652;2022-08-03T08:12:57;8.82;;;2.97;;
68449;SDS011;55434;39.570;2.652;2022-08-03T08:15:23;8.33;;;2.30;;
68449;SDS011;55434;39.570;2.652;2022-08-03T08:17:53;6.88;;;2.28;;
68449;SDS011;55434;39.570;2.652;2022-08-03T08:20:22;5.97;;;2.83;;
68449;SDS011;55434;39.570;2.652;2022-08-03T08:22:50;8.60;;;2.33;;
68449;SDS011;55434;39.570;2.652;2022-08-03T08:25:16;6.95;;;2.75;;
68449;SDS011;55434;39.570;2.652;2022-08-03T08:30:16;9.82;;;2.50;;
68449;SDS011;55434;39.570;2.652;2022-08-03T08:33:04;6.18;;;2.13;;
68449;SDS011;55434;39.570;2.652;2022-08-03T08:35:54;5.47;;;2.60;;
68449;SDS011;55434;39.570;2.652;2022-08-03T08:38:33;7.78;;;2.80;;
68449;SDS011;55434;39.570;2.652;2022-08-03T08:47:03;5.55;;;2.50;;
68449;SDS011;55434;39.570;2.652;2022-08-03T08:49:38;5.70;;;2.50;;
68449;SDS011;55434;39.570;2.652;2022-08-03T08:52:07;8.30;;;2.30;;
68449;SDS011;55434;39.570;2.652;2022-08-03T08:54:37;7.60;;;2.83;;
68449;SDS011;55434;39.570;2.652;2022-08-03T08:57:08;6.47;;;2.80;;
68449;SDS011;55434;39.570;2.652;2022-08-03T08:59:48;7.75;;;2.55;;
68449;SDS011;55434;39.570;2.652;2022-08-03T09:02:45;7.32;;;2.67;;
68449;SDS011;55434;39.570;2.652;2022-08-03T09:05:21;7.93;;;2.50;;
68449;SDS011;55434;39.570;2.652;2022-08-03T09:07:50;9.20;;;2.88;;
68449;SDS011;55434;39.570;2.652;2022-08-03T09:10:24;7.22;;;2.40;;
68449;SDS011;55434;39.570;2.652;2022-08-03T09:12:51;8.23;;;2.60;;
68449;SDS011;55434;39.570;2.652;2022-08-03T09:17:44;8.53;;;3.10;;
68449;SDS011;55434;39.570;2.652;2022-08-03T09:20:10;8.00;;;3.22;;
68449;SDS011;55434;39.570;2.652;2022-08-03T09:22:53;8.05;;;3.50;;
68449;SDS011;55434;39.570;2.652;2022-08-03T09:25:27;6.18;;;2.50;;
68449;SDS011;55434;39.570;2.652;2022-08-03T09:30:58;6.50;;;2.43;;
68449;SDS011;55434;39.570;2.652;2022-08-03T09:33:24;6.40;;;2.10;;
68449;SDS011;55434;39.570;2.652;2022-08-03T09:35:50;5.70;;;2.30;;
68449;SDS011;55434;39.570;2.652;2022-08-03T09:38:16;6.80;;;2.35;;
68449;SDS011;55434;39.570;2.652;2022-08-03T09:40:48;7.43;;;2.57;;
68449;SDS011;55434;39.570;2.652;2022-08-03T09:43:14;6.88;;;2.10;;
68449;SDS011;55434;39.570;2.652;2022-08-03T09:45:39;8.40;;;2.35;;
68449;SDS011;55434;39.570;2.652;2022-08-03T09:48:22;7.27;;;2.90;;
68449;SDS011;55434;39.570;2.652;2022-08-03T09:50:49;7.38;;;2.83;;
68449;SDS011;55434;39.570;2.652;2022-08-03T09:53:17;9.13;;;2.97;;
68449;SDS011;55434;39.570;2.652;2022-08-03T09:55:50;11.13;;;4.53;;
68449;SDS011;55434;39.570;2.652;2022-08-03T09:58:28;9.98;;;3.72;;
68449;SDS011;55434;39.570;2.652;2022-08-03T10:01:19;18.58;;;5.60;;
68449;SDS011;55434;39.570;2.652;2022-08-03T10:03:56;12.18;;;4.05;;
68449;SDS011;55434;39.570;2.652;2022-08-03T10:06:25;10.32;;;2.75;;
68449;SDS011;55434;39.570;2.652;2022-08-03T10:09:07;7.43;;;2.78;;
68449;SDS011;55434;39.570;2.652;2022-08-03T10:11:35;6.18;;;2.45;;
68449;SDS011;55434;39.570;2.652;2022-08-03T10:14:02;6.53;;;2.70;;
68449;SDS011;55434;39.570;2.652;2022-08-03T10:16:33;7.25;;;2.95;;
68449;SDS011;55434;39.570;2.652;2022-08-03T10:19:01;16.35;;;4.10;;
68449;SDS011;55434;39.570;2.652;2022-08-03T10:21:34;11.30;;;3.33;;
68449;SDS011;55434;39.570;2.652;2022-08-03T10:24:08;11.07;;;2.95;;
68449;SDS011;55434;39.570;2.652;2022-08-03T10:26:35;12.02;;;3.10;;
68449;SDS011;55434;39.570;2.652;2022-08-03T10:29:06;8.75;;;3.40;;
68449;SDS011;55434;39.570;2.652;2022-08-03T10:31:39;8.52;;;3.08;;
68449;SDS011;55434;39.570;2.652;2022-08-03T10:34:16;7.13;;;3.35;;
68449;SDS011;55434;39.570;2.652;2022-08-03T10:36:46;7.22;;;3.03;;
68449;SDS011;55434;39.570;2.652;2022-08-03T10:39:13;13.82;;;3.83;;
68449;SDS011;55434;39.570;2.652;2022-08-03T10:41:44;9.55;;;3.20;;
68449;SDS011;55434;39.570;2.652;2022-08-03T10:44:16;8.10;;;3.38;;
68449;SDS011;55434;39.570;2.652;2022-08-03T10:46:44;6.53;;;4.55;;
68449;SDS011;55434;39.570;2.652;2022-08-03T10:49:15;11.10;;;4.18;;
68449;SDS011;55434;39.570;2.652;2022-08-03T10:51:46;9.52;;;4.15;;
68449;SDS011;55434;39.570;2.652;2022-08-03T10:54:57;8.05;;;3.55;;
68449;SDS011;55434;39.570;2.652;2022-08-03T10:57:01;13.73;;;5.10;;
68449;SDS011;55434;39.570;2.652;2022-08-03T10:59:55;7.65;;;5.20;;
68449;SDS011;55434;39.570;2.652;2022-08-03T11:02:22;7.20;;;5.00;;
68449;SDS011;55434;39.570;2.652;2022-08-03T11:05:27;6.47;;;4.50;;
68449;SDS011;55434;39.570;2.652;2022-08-03T11:10:42;7.07;;;5.00;;
68449;SDS011;55434;39.570;2.652;2022-08-03T11:13:07;5.67;;;4.43;;
68449;SDS011;55434;39.570;2.652;2022-08-03T11:15:34;6.88;;;4.55;;
68449;SDS011;55434;39.570;2.652;2022-08-03T11:18:08;11.93;;;5.28;;
68449;SDS011;55434;39.570;2.652;2022-08-03T11:20:44;7.05;;;4.28;;
68449;SDS011;55434;39.570;2.652;2022-08-03T11:23:15;8.97;;;3.80;;
68449;SDS011;55434;39.570;2.652;2022-08-03T11:28:36;6.32;;;3.67;;
68449;SDS011;55434;39.570;2.652;2022-08-03T11:34:07;10.38;;;5.20;;
68449;SDS011;55434;39.570;2.652;2022-08-03T11:39:42;8.68;;;4.60;;
68449;SDS011;55434;39.570;2.652;2022-08-03T11:56:48;8.75;;;5.03;;
68449;SDS011;55434;39.570;2.652;2022-08-03T11:59:32;7.88;;;4.47;;
68449;SDS011;55434;39.570;2.652;2022-08-03T12:02:13;7.43;;;5.30;;
68449;SDS011;55434;39.570;2.652;2022-08-03T12:04:55;5.97;;;4.72;;
68449;SDS011;55434;39.570;2.652;2022-08-03T12:07:26;9.03;;;6.60;;
68449;SDS011;55434;39.570;2.652;2022-08-03T12:10:10;8.32;;;6.50;;
68449;SDS011;55434;39.570;2.652;2022-08-03T12:12:43;9.43;;;6.22;;
68449;SDS011;55434;39.570;2.652;2022-08-03T12:31:04;11.90;;;7.25;;
68449;SDS011;55434;39.570;2.652;2022-08-03T12:34:45;8.65;;;5.63;;
68449;SDS011;55434;39.570;2.652;2022-08-03T12:37:12;8.07;;;4.90;;
68449;SDS011;55434;39.570;2.652;2022-08-03T12:39:40;7.28;;;4.93;;
68449;SDS011;55434;39.570;2.652;2022-08-03T12:42:06;7.80;;;5.43;;
68449;SDS011;55434;39.570;2.652;2022-08-03T12:44:34;6.78;;;4.75;;
68449;SDS011;55434;39.570;2.652;2022-08-03T12:47:00;8.63;;;5.00;;
68449;SDS011;55434;39.570;2.652;2022-08-03T12:49:27;8.32;;;4.85;;
68449;SDS011;55434;39.570;2.652;2022-08-03T12:52:27;6.80;;;4.00;;
68449;SDS011;55434;39.570;2.652;2022-08-03T12:55:18;9.45;;;5.82;;
68449;SDS011;55434;39.570;2.652;2022-08-03T12:57:47;7.97;;;5.03;;
68449;SDS011;55434;39.570;2.652;2022-08-03T13:00:16;10.63;;;5.53;;
68449;SDS011;55434;39.570;2.652;2022-08-03T13:02:46;14.57;;;5.50;;
68449;SDS011;55434;39.570;2.652;2022-08-03T13:05:24;7.97;;;4.78;;
68449;SDS011;55434;39.570;2.652;2022-08-03T13:07:50;9.57;;;4.82;;
68449;SDS011;55434;39.570;2.652;2022-08-03T13:10:49;6.63;;;3.93;;
68449;SDS011;55434;39.570;2.652;2022-08-03T13:13:07;8.43;;;5.22;;
68449;SDS011;55434;39.570;2.652;2022-08-03T13:15:40;8.02;;;4.10;;
68449;SDS011;55434;39.570;2.652;2022-08-03T13:18:09;8.32;;;4.40;;
68449;SDS011;55434;39.570;2.652;2022-08-03T13:20:35;16.90;;;8.00;;
68449;SDS011;55434;39.570;2.652;2022-08-03T13:23:00;9.85;;;7.40;;
68449;SDS011;55434;39.570;2.652;2022-08-03T13:25:26;9.87;;;4.73;;
68449;SDS011;55434;39.570;2.652;2022-08-03T13:27:52;7.55;;;5.03;;
68449;SDS011;55434;39.570;2.652;2022-08-03T13:30:19;8.77;;;4.82;;
68449;SDS011;55434;39.570;2.652;2022-08-03T13:32:45;8.02;;;5.22;;
68449;SDS011;55434;39.570;2.652;2022-08-03T13:35:11;9.60;;;6.63;;
68449;SDS011;55434;39.570;2.652;2022-08-03T13:37:37;7.20;;;5.05;;
68449;SDS011;55434;39.570;2.652;2022-08-03T13:40:03;7.17;;;4.63;;
68449;SDS011;55434;39.570;2.652;2022-08-03T13:42:31;9.43;;;4.82;;
68449;SDS011;55434;39.570;2.652;2022-08-03T13:44:58;9.18;;;5.32;;
68449;SDS011;55434;39.570;2.652;2022-08-03T13:47:25;9.68;;;4.25;;
68449;SDS011;55434;39.570;2.652;2022-08-03T13:49:51;7.60;;;5.35;;
68449;SDS011;55434;39.570;2.652;2022-08-03T13:52:17;6.30;;;4.93;;
68449;SDS011;55434;39.570;2.652;2022-08-03T13:54:43;8.13;;;4.63;;
68449;SDS011;55434;39.570;2.652;2022-08-03T13:57:09;5.57;;;4.10;;
68449;SDS011;55434;39.570;2.652;2022-08-03T13:59:35;7.13;;;4.05;;
68449;SDS011;55434;39.570;2.652;2022-08-03T14:02:02;5.97;;;3.88;;
68449;SDS011;55434;39.570;2.652;2022-08-03T14:04:28;8.57;;;3.83;;
68449;SDS011;55434;39.570;2.652;2022-08-03T14:06:53;6.27;;;3.97;;
68449;SDS011;55434;39.570;2.652;2022-08-03T14:09:19;8.10;;;4.22;;
68449;SDS011;55434;39.570;2.652;2022-08-03T14:11:45;6.67;;;3.80;;
68449;SDS011;55434;39.570;2.652;2022-08-03T14:14:11;9.35;;;3.92;;
68449;SDS011;55434;39.570;2.652;2022-08-03T14:16:37;7.47;;;4.13;;
68449;SDS011;55434;39.570;2.652;2022-08-03T14:19:03;9.20;;;3.40;;
68449;SDS011;55434;39.570;2.652;2022-08-03T14:21:29;6.85;;;3.47;;
68449;SDS011;55434;39.570;2.652;2022-08-03T15:09:00;9.93;;;5.57;;
68449;SDS011;55434;39.570;2.652;2022-08-03T15:11:26;8.63;;;6.13;;
68449;SDS011;55434;39.570;2.652;2022-08-03T15:13:51;9.63;;;7.20;;
68449;SDS011;55434;39.570;2.652;2022-08-03T15:16:24;11.57;;;5.72;;
68449;SDS011;55434;39.570;2.652;2022-08-03T15:19:32;8.60;;;4.68;;
68449;SDS011;55434;39.570;2.652;2022-08-03T15:22:09;7.90;;;4.57;;
68449;SDS011;55434;39.570;2.652;2022-08-03T15:24:35;6.55;;;4.80;;
68449;SDS011;55434;39.570;2.652;2022-08-03T15:27:03;6.00;;;4.53;;
68449;SDS011;55434;39.570;2.652;2022-08-03T15:29:41;5.47;;;4.00;;
68449;SDS011;55434;39.570;2.652;2022-08-03T15:32:13;7.93;;;5.15;;
68449;SDS011;55434;39.570;2.652;2022-08-03T15:34:45;5.82;;;4.47;;
68449;SDS011;55434;39.570;2.652;2022-08-03T15:37:11;7.30;;;5.20;;
68449;SDS011;55434;39.570;2.652;2022-08-03T15:39:46;7.05;;;4.20;;
68449;SDS011;55434;39.570;2.652;2022-08-03T15:42:12;6.38;;;4.50;;
68449;SDS011;55434;39.570;2.652;2022-08-03T15:44:45;7.17;;;4.37;;
68449;SDS011;55434;39.570;2.652;2022-08-03T15:47:19;8.98;;;4.63;;
68449;SDS011;55434;39.570;2.652;2022-08-03T15:49:52;7.32;;;4.47;;
68449;SDS011;55434;39.570;2.652;2022-08-03T15:52:23;7.85;;;5.03;;
68449;SDS011;55434;39.570;2.652;2022-08-03T15:54:53;5.47;;;4.18;;
68449;SDS011;55434;39.570;2.652;2022-08-03T15:57:21;5.65;;;3.97;;
68449;SDS011;55434;39.570;2.652;2022-08-03T16:03:14;6.68;;;4.00;;
68449;SDS011;55434;39.570;2.652;2022-08-03T16:05:52;7.80;;;4.50;;
68449;SDS011;55434;39.570;2.652;2022-08-03T16:08:28;6.50;;;4.60;;
68449;SDS011;55434;39.570;2.652;2022-08-03T16:11:05;5.93;;;4.20;;
68449;SDS011;55434;39.570;2.652;2022-08-03T16:13:31;6.43;;;3.80;;
68449;SDS011;55434;39.570;2.652;2022-08-03T16:16:15;6.78;;;4.13;;
68449;SDS011;55434;39.570;2.652;2022-08-03T16:18:51;8.93;;;4.72;;
68449;SDS011;55434;39.570;2.652;2022-08-03T16:21:19;6.57;;;4.03;;
68449;SDS011;55434;39.570;2.652;2022-08-03T16:23:47;5.50;;;3.65;;
68449;SDS011;55434;39.570;2.652;2022-08-03T16:26:13;5.73;;;4.43;;
68449;SDS011;55434;39.570;2.652;2022-08-03T16:28:39;5.63;;;3.90;;
68449;SDS011;55434;39.570;2.652;2022-08-03T16:31:05;6.80;;;3.67;;
68449;SDS011;55434;39.570;2.652;2022-08-03T16:33:33;6.43;;;4.22;;
68449;SDS011;55434;39.570;2.652;2022-08-03T16:35:59;6.35;;;4.03;;
68449;SDS011;55434;39.570;2.652;2022-08-03T16:38:25;7.00;;;3.80;;
68449;SDS011;55434;39.570;2.652;2022-08-03T16:40:51;6.40;;;3.80;;
68449;SDS011;55434;39.570;2.652;2022-08-03T16:43:19;13.68;;;4.00;;
68449;SDS011;55434;39.570;2.652;2022-08-03T16:45:48;8.65;;;4.05;;
68449;SDS011;55434;39.570;2.652;2022-08-03T16:48:15;6.22;;;3.85;;
68449;SDS011;55434;39.570;2.652;2022-08-03T16:50:41;7.00;;;3.22;;
68449;SDS011;55434;39.570;2.652;2022-08-03T16:53:10;8.32;;;3.72;;
68449;SDS011;55434;39.570;2.652;2022-08-03T16:55:37;5.57;;;3.05;;
68449;SDS011;55434;39.570;2.652;2022-08-03T16:58:06;5.72;;;3.40;;
68449;SDS011;55434;39.570;2.652;2022-08-03T17:00:46;5.68;;;3.10;;
68449;SDS011;55434;39.570;2.652;2022-08-03T17:03:12;5.75;;;3.05;;
68449;SDS011;55434;39.570;2.652;2022-08-03T17:05:40;5.28;;;3.00;;
68449;SDS011;55434;39.570;2.652;2022-08-03T17:08:06;5.57;;;3.17;;
68449;SDS011;55434;39.570;2.652;2022-08-03T17:10:31;6.80;;;2.75;;
68449;SDS011;55434;39.570;2.652;2022-08-03T17:12:57;8.07;;;2.90;;
68449;SDS011;55434;39.570;2.652;2022-08-03T17:15:23;6.90;;;3.47;;
68449;SDS011;55434;39.570;2.652;2022-08-03T17:17:54;7.63;;;2.83;;
68449;SDS011;55434;39.570;2.652;2022-08-03T17:20:28;5.00;;;2.55;;
68449;SDS011;55434;39.570;2.652;2022-08-03T17:22:58;5.95;;;2.80;;
68449;SDS011;55434;39.570;2.652;2022-08-03T17:25:31;6.10;;;2.65;;
68449;SDS011;55434;39.570;2.652;2022-08-03T17:27:58;7.30;;;2.70;;
68449;SDS011;55434;39.570;2.652;2022-08-03T17:30:23;6.68;;;2.70;;
68449;SDS011;55434;39.570;2.652;2022-08-03T17:33:10;5.20;;;2.60;;
68449;SDS011;55434;39.570;2.652;2022-08-03T17:35:36;6.65;;;2.53;;
68449;SDS011;55434;39.570;2.652;2022-08-03T17:38:03;6.68;;;2.67;;
68449;SDS011;55434;39.570;2.652;2022-08-03T17:40:30;4.90;;;2.40;;
68449;SDS011;55434;39.570;2.652;2022-08-03T17:42:55;6.10;;;2.58;;
68449;SDS011;55434;39.570;2.652;2022-08-03T17:45:23;6.93;;;2.78;;
68449;SDS011;55434;39.570;2.652;2022-08-03T17:47:48;6.73;;;2.93;;
68449;SDS011;55434;39.570;2.652;2022-08-03T17:50:14;8.27;;;2.92;;